createdAt,value
2017-10-15T00:01:29.474Z,13.70
2017-10-15T00:04:03.277Z,13.70
2017-10-15T00:06:37.105Z,13.70
2017-10-15T00:09:11.571Z,13.60
2017-10-15T00:11:45.309Z,13.60
2017-10-15T00:14:20.126Z,13.40
2017-10-15T00:16:53.995Z,13.40
2017-10-15T00:19:27.909Z,13.30
2017-10-15T00:22:08.349Z,13.20
2017-10-15T00:24:42.926Z,13.10
2017-10-15T00:27:17.449Z,13.00
2017-10-15T00:29:51.202Z,13.00
2017-10-15T00:32:24.845Z,13.00
2017-10-15T00:34:58.796Z,12.90
2017-10-15T00:37:33.548Z,12.90
2017-10-15T00:40:07.363Z,12.80
2017-10-15T00:42:41.154Z,12.80
2017-10-15T00:45:14.919Z,12.80
2017-10-15T00:47:48.770Z,12.70
2017-10-15T00:50:22.552Z,12.70
2017-10-15T00:52:56.391Z,12.70
2017-10-15T00:55:30.189Z,12.70
2017-10-15T00:58:05.699Z,12.70
2017-10-15T01:00:39.301Z,12.70
2017-10-15T01:03:13.121Z,12.60
2017-10-15T01:05:46.920Z,12.60
2017-10-15T01:08:21.629Z,12.50
2017-10-15T01:10:55.485Z,12.50
2017-10-15T01:13:30.042Z,12.50
2017-10-15T01:16:03.832Z,12.40
2017-10-15T01:18:37.616Z,12.50
2017-10-15T01:21:12.334Z,12.40
2017-10-15T01:23:47.487Z,12.40
2017-10-15T01:26:21.108Z,12.40
2017-10-15T01:28:54.717Z,12.40
2017-10-15T01:31:28.350Z,12.40
2017-10-15T01:34:02.159Z,12.40
2017-10-15T01:36:36.576Z,12.40
2017-10-15T01:39:11.167Z,12.50
2017-10-15T01:41:45.127Z,12.50
2017-10-15T01:44:19.637Z,12.50
2017-10-15T01:46:55.184Z,12.50
2017-10-15T01:49:29.502Z,12.60
2017-10-15T01:52:03.424Z,12.60
2017-10-15T01:54:38.003Z,12.50
2017-10-15T01:57:11.733Z,12.50
2017-10-15T01:59:45.521Z,12.50
2017-10-15T02:02:20.125Z,12.50
2017-10-15T02:04:53.978Z,12.50
2017-10-15T02:07:27.904Z,12.50
2017-10-15T02:10:02.152Z,12.50
2017-10-15T02:12:35.891Z,12.40
2017-10-15T02:15:09.697Z,12.40
2017-10-15T02:17:43.350Z,12.30
2017-10-15T02:20:17.116Z,12.30
2017-10-15T02:22:51.251Z,12.30
2017-10-15T02:25:27.361Z,12.30
2017-10-15T02:28:01.156Z,12.20
2017-10-15T02:30:35.070Z,12.20
2017-10-15T02:33:08.851Z,12.20
2017-10-15T02:35:43.497Z,12.20
2017-10-15T02:38:17.109Z,12.10
2017-10-15T02:40:50.876Z,12.10
2017-10-15T02:43:24.439Z,12.10
2017-10-15T02:45:58.261Z,12.10
2017-10-15T02:48:31.935Z,12.00
2017-10-15T02:51:05.637Z,12.00
2017-10-15T02:53:39.425Z,12.00
2017-10-15T02:56:13.196Z,12.00
2017-10-15T02:58:46.902Z,12.00
2017-10-15T03:01:20.642Z,12.00
2017-10-15T03:03:54.416Z,12.00
2017-10-15T03:06:30.156Z,12.00
2017-10-15T03:09:03.735Z,12.00
2017-10-15T03:11:37.351Z,12.00
2017-10-15T03:14:48.312Z,12.00
2017-10-15T03:17:21.874Z,11.90
2017-10-15T03:19:55.509Z,11.90
2017-10-15T03:22:29.213Z,11.90
2017-10-15T03:25:02.904Z,11.90
2017-10-15T03:31:08.121Z,11.90
2017-10-15T03:33:41.900Z,11.90
2017-10-15T03:36:15.561Z,11.90
2017-10-15T03:38:49.268Z,11.90
2017-10-15T03:41:23.028Z,12.00
2017-10-15T03:43:56.744Z,12.00
2017-10-15T03:46:30.376Z,12.00
2017-10-15T03:49:04.149Z,12.00
2017-10-15T03:55:28.478Z,12.10
2017-10-15T03:58:37.254Z,12.10
2017-10-15T04:01:15.938Z,12.00
2017-10-15T04:03:49.741Z,12.00
2017-10-15T04:06:24.405Z,12.00
2017-10-15T04:08:59.487Z,12.00
2017-10-15T04:11:33.260Z,12.00
2017-10-15T04:14:07.081Z,12.00
2017-10-15T04:16:42.949Z,12.00
2017-10-15T04:19:19.322Z,12.00
2017-10-15T04:21:53.041Z,12.00
2017-10-15T04:24:26.861Z,12.10
2017-10-15T04:27:00.628Z,12.10
2017-10-15T04:29:34.398Z,12.10
2017-10-15T04:32:08.872Z,12.10
2017-10-15T04:34:42.634Z,12.10
2017-10-15T04:37:17.288Z,12.20
2017-10-15T04:39:51.822Z,12.10
2017-10-15T04:42:26.945Z,12.10
2017-10-15T04:45:00.789Z,12.10
2017-10-15T04:47:34.528Z,12.10
2017-10-15T04:50:08.986Z,12.10
2017-10-15T04:52:43.450Z,12.10
2017-10-15T04:55:17.105Z,12.10
2017-10-15T04:57:50.823Z,12.00
2017-10-15T05:00:26.462Z,12.00
2017-10-15T05:03:00.917Z,12.00
2017-10-15T05:05:34.739Z,12.00
2017-10-15T05:08:08.460Z,12.00
2017-10-15T05:10:42.141Z,12.00
2017-10-15T05:13:15.730Z,12.00
2017-10-15T05:15:49.531Z,11.90
2017-10-15T05:18:23.464Z,11.90
2017-10-15T05:20:57.271Z,11.90
2017-10-15T05:23:32.976Z,11.90
2017-10-15T05:26:06.657Z,11.90
2017-10-15T05:28:42.298Z,11.90
2017-10-15T05:31:16.082Z,11.90
2017-10-15T05:33:50.908Z,11.80
2017-10-15T05:36:25.788Z,11.80
2017-10-15T05:38:59.473Z,11.80
2017-10-15T05:41:34.005Z,11.90
2017-10-15T05:44:07.696Z,11.90
2017-10-15T05:46:41.371Z,12.00
2017-10-15T05:49:15.181Z,12.00
2017-10-15T05:51:48.909Z,12.00
2017-10-15T05:54:22.727Z,12.00
2017-10-15T05:56:56.361Z,12.00
2017-10-15T05:59:30.135Z,12.00
2017-10-15T06:02:03.863Z,12.00
2017-10-15T06:04:37.730Z,12.10
2017-10-15T06:07:12.265Z,12.10
2017-10-15T06:09:45.932Z,12.10
2017-10-15T06:12:20.491Z,12.20
2017-10-15T06:14:54.130Z,12.10
2017-10-15T06:17:27.935Z,12.20
2017-10-15T06:20:01.652Z,12.20
2017-10-15T06:22:36.225Z,12.20
2017-10-15T06:25:09.970Z,12.20
2017-10-15T06:27:43.617Z,12.20
2017-10-15T06:30:17.375Z,12.30
2017-10-15T06:32:51.141Z,12.30
2017-10-15T06:35:24.780Z,12.30
2017-10-15T06:37:59.369Z,12.40
2017-10-15T06:40:33.035Z,12.40
2017-10-15T06:43:06.881Z,12.40
2017-10-15T06:45:40.668Z,12.50
2017-10-15T06:48:14.430Z,12.50
2017-10-15T06:50:48.161Z,12.50
2017-10-15T06:53:21.941Z,12.60
2017-10-15T06:55:56.455Z,12.70
2017-10-15T06:58:30.230Z,12.70
2017-10-15T07:01:04.109Z,12.70
2017-10-15T07:03:38.591Z,12.90
2017-10-15T07:06:12.388Z,12.90
2017-10-15T07:08:46.150Z,13.00
2017-10-15T07:11:20.018Z,13.10
2017-10-15T07:13:54.600Z,13.30
2017-10-15T07:16:28.475Z,13.20
2017-10-15T07:19:02.306Z,13.30
2017-10-15T07:21:36.069Z,13.30
2017-10-15T07:24:09.757Z,13.40
2017-10-15T07:26:43.482Z,13.40
2017-10-15T07:29:17.236Z,13.50
2017-10-15T07:31:51.073Z,13.50
2017-10-15T07:34:24.776Z,13.60
2017-10-15T07:36:58.786Z,13.70
2017-10-15T07:39:32.391Z,13.80
2017-10-15T07:42:06.126Z,13.90
2017-10-15T07:44:39.929Z,14.00
2017-10-15T07:47:13.779Z,14.00
2017-10-15T07:49:48.604Z,14.10
2017-10-15T07:52:22.665Z,14.20
2017-10-15T07:54:56.461Z,14.30
2017-10-15T07:57:30.396Z,14.40
2017-10-15T08:00:04.135Z,14.40
2017-10-15T08:02:38.828Z,14.50
2017-10-15T08:05:12.533Z,14.60
2017-10-15T08:07:46.323Z,14.70
2017-10-15T08:10:20.078Z,14.80
2017-10-15T08:12:54.649Z,15.10
2017-10-15T08:15:28.487Z,15.00
2017-10-15T08:18:02.265Z,15.20
2017-10-15T08:20:37.051Z,15.30
2017-10-15T08:23:10.786Z,15.30
2017-10-15T08:25:44.593Z,15.40
2017-10-15T08:28:18.292Z,15.50
2017-10-15T08:30:52.116Z,15.50
2017-10-15T08:33:25.978Z,15.60
2017-10-15T08:36:00.504Z,15.70
2017-10-15T08:38:34.183Z,15.70
2017-10-15T08:41:07.951Z,15.80
2017-10-15T08:43:41.820Z,15.90
2017-10-15T08:46:15.649Z,16.00
2017-10-15T08:48:49.460Z,16.00
2017-10-15T08:51:23.238Z,16.10
2017-10-15T08:53:57.040Z,16.20
2017-10-15T08:56:30.711Z,16.30
2017-10-15T08:59:05.096Z,16.50
2017-10-15T09:01:38.872Z,16.40
2017-10-15T09:04:12.594Z,16.50
2017-10-15T09:06:47.073Z,16.60
2017-10-15T09:09:20.974Z,16.60
2017-10-15T09:11:55.539Z,16.70
2017-10-15T09:14:29.232Z,16.70
2017-10-15T09:17:02.934Z,16.70
2017-10-15T09:19:36.773Z,16.80
2017-10-15T09:22:10.564Z,16.90
2017-10-15T09:24:45.182Z,17.00
2017-10-15T09:27:19.659Z,17.10
2017-10-15T09:29:53.439Z,17.10
2017-10-15T09:32:28.188Z,17.20
2017-10-15T09:35:01.977Z,17.30
2017-10-15T09:37:35.868Z,17.30
2017-10-15T09:40:09.679Z,17.40
2017-10-15T09:42:43.441Z,17.40
2017-10-15T09:45:17.156Z,17.40
2017-10-15T09:47:50.716Z,17.50
2017-10-15T09:50:25.181Z,17.60
2017-10-15T09:52:58.955Z,17.60
2017-10-15T09:55:32.721Z,17.70
2017-10-15T09:58:07.285Z,17.70
2017-10-15T10:00:41.116Z,17.80
2017-10-15T10:03:14.788Z,17.80
2017-10-15T10:05:48.553Z,17.90
2017-10-15T10:08:22.352Z,18.00
2017-10-15T10:10:56.176Z,18.00
2017-10-15T10:13:29.955Z,18.10
2017-10-15T10:16:03.521Z,18.10
2017-10-15T10:18:37.285Z,18.20
2017-10-15T10:21:11.088Z,18.20
2017-10-15T10:23:44.775Z,18.30
2017-10-15T10:26:18.574Z,18.30
2017-10-15T10:28:52.270Z,18.30
2017-10-15T10:31:25.971Z,18.40
2017-10-15T10:33:59.778Z,18.50
2017-10-15T10:36:33.385Z,18.50
2017-10-15T10:39:06.980Z,18.60
2017-10-15T10:41:40.603Z,18.60
2017-10-15T10:44:14.503Z,18.70
2017-10-15T10:46:48.156Z,18.70
2017-10-15T10:49:21.905Z,18.70
2017-10-15T10:51:55.755Z,18.90
2017-10-15T10:54:29.550Z,19.00
2017-10-15T10:57:03.354Z,19.10
2017-10-15T10:59:37.173Z,19.10
2017-10-15T11:02:11.525Z,19.30
2017-10-15T11:04:45.356Z,19.30
2017-10-15T11:07:19.185Z,19.30
2017-10-15T11:09:52.939Z,19.40
2017-10-15T11:12:27.421Z,19.50
2017-10-15T11:15:01.052Z,19.60
2017-10-15T11:17:34.901Z,19.60
2017-10-15T11:20:09.476Z,19.70
2017-10-15T11:22:43.116Z,19.60
2017-10-15T11:25:16.835Z,19.70
2017-10-15T11:27:50.664Z,19.70
2017-10-15T11:30:25.229Z,19.80
2017-10-15T11:32:58.962Z,19.80
2017-10-15T11:35:32.729Z,19.90
2017-10-15T11:38:06.501Z,20.00
2017-10-15T11:40:40.281Z,20.00
2017-10-15T11:43:14.895Z,20.10
2017-10-15T11:45:48.682Z,20.10
2017-10-15T11:48:23.233Z,20.20
2017-10-15T11:50:57.829Z,20.20
2017-10-15T11:53:32.678Z,20.20
2017-10-15T11:56:06.461Z,20.20
2017-10-15T11:58:42.173Z,20.30
2017-10-15T12:01:16.620Z,20.30
2017-10-15T12:03:50.428Z,20.40
2017-10-15T12:06:24.951Z,20.50
2017-10-15T12:08:58.670Z,20.50
2017-10-15T12:11:33.373Z,20.50
2017-10-15T12:14:07.152Z,20.50
2017-10-15T12:16:41.057Z,20.50
2017-10-15T12:19:14.844Z,20.50
2017-10-15T12:21:48.609Z,20.60
2017-10-15T12:24:22.178Z,20.60
2017-10-15T12:26:55.986Z,20.70
2017-10-15T12:29:29.723Z,20.70
2017-10-15T12:32:03.420Z,20.80
2017-10-15T12:34:38.182Z,20.80
2017-10-15T12:37:11.782Z,20.90
2017-10-15T12:39:46.348Z,20.90
2017-10-15T12:42:21.243Z,21.20
2017-10-15T12:44:54.881Z,22.20
2017-10-15T12:47:29.726Z,24.90
2017-10-15T12:50:03.415Z,24.90
2017-10-15T12:52:39.379Z,26.20
2017-10-15T12:55:13.184Z,27.40
2017-10-15T12:57:46.929Z,28.10
2017-10-15T13:00:21.059Z,29.00
2017-10-15T13:02:55.186Z,29.70
2017-10-15T13:05:28.972Z,29.70
2017-10-15T13:08:04.704Z,30.00
2017-10-15T13:10:38.445Z,30.00
2017-10-15T13:13:12.442Z,29.50
2017-10-15T13:15:46.601Z,29.40
2017-10-15T13:18:20.382Z,29.00
2017-10-15T13:20:55.323Z,29.70
2017-10-15T13:23:30.022Z,30.30
2017-10-15T13:26:04.114Z,30.30
2017-10-15T13:28:38.484Z,30.40
2017-10-15T13:31:13.177Z,30.10
2017-10-15T13:33:47.757Z,30.10
2017-10-15T13:36:24.338Z,30.10
2017-10-15T13:39:00.694Z,30.40
2017-10-15T13:41:35.841Z,30.80
2017-10-15T13:44:09.496Z,31.10
2017-10-15T13:46:43.773Z,30.70
2017-10-15T13:49:18.293Z,29.80
2017-10-15T13:51:52.327Z,29.70
2017-10-15T13:54:25.960Z,29.40
2017-10-15T13:57:02.306Z,29.90
2017-10-15T13:59:36.860Z,29.90
2017-10-15T14:04:50.233Z,29.70
2017-10-15T14:07:24.368Z,30.00
2017-10-15T14:10:01.039Z,30.70
2017-10-15T14:12:34.864Z,30.60
2017-10-15T14:15:09.227Z,30.40
2017-10-15T14:17:44.210Z,30.00
2017-10-15T14:20:17.846Z,30.00
2017-10-15T14:22:52.619Z,30.10
2017-10-15T14:25:30.223Z,30.80
2017-10-15T14:28:03.929Z,31.40
2017-10-15T14:30:38.391Z,31.70
2017-10-15T14:33:12.521Z,31.10
2017-10-15T14:35:46.888Z,31.10
2017-10-15T14:38:20.601Z,31.30
2017-10-15T14:40:56.228Z,31.50
2017-10-15T14:43:32.981Z,31.30
2017-10-15T14:46:06.756Z,31.30
2017-10-15T14:48:40.524Z,31.20
2017-10-15T14:51:16.259Z,31.50
2017-10-15T14:53:50.013Z,32.00
2017-10-15T14:59:04.468Z,32.00
2017-10-15T15:01:38.617Z,32.30
2017-10-15T15:06:51.213Z,33.20
2017-10-15T15:09:24.921Z,33.40
2017-10-15T15:11:58.899Z,33.90
2017-10-15T15:14:32.651Z,33.50
2017-10-15T15:17:06.306Z,33.40
2017-10-15T15:19:40.982Z,32.90
2017-10-15T15:22:14.784Z,33.10
2017-10-15T15:24:48.568Z,33.30
2017-10-15T15:27:22.229Z,33.40
2017-10-15T15:29:55.994Z,33.30
2017-10-15T15:32:29.807Z,33.30
2017-10-15T15:37:45.101Z,32.40
2017-10-15T15:40:18.697Z,30.50
2017-10-15T15:42:53.141Z,28.40
2017-10-15T15:45:26.924Z,26.80
2017-10-15T15:48:00.527Z,25.40
2017-10-15T15:50:34.366Z,24.50
2017-10-15T15:53:08.898Z,23.90
2017-10-15T15:55:43.645Z,22.90
2017-10-15T15:58:18.118Z,22.90
2017-10-15T16:00:54.335Z,22.50
2017-10-15T16:03:29.173Z,22.20
2017-10-15T16:06:02.976Z,21.90
2017-10-15T16:08:37.718Z,21.70
2017-10-15T16:11:11.417Z,21.40
2017-10-15T16:13:45.036Z,21.20
2017-10-15T16:16:19.554Z,20.80
2017-10-15T16:18:55.733Z,20.80
2017-10-15T16:21:29.358Z,20.60
2017-10-15T16:24:03.055Z,20.40
2017-10-15T16:26:36.807Z,20.20
2017-10-15T16:29:11.179Z,19.90
2017-10-15T16:31:45.218Z,19.80
2017-10-15T16:34:19.600Z,19.40
2017-10-15T16:36:54.305Z,19.40
2017-10-15T16:39:28.346Z,19.30
2017-10-15T16:42:02.275Z,19.10
2017-10-15T16:44:36.946Z,18.90
2017-10-15T16:47:11.485Z,18.80
2017-10-15T16:49:46.982Z,18.60
2017-10-15T16:52:21.731Z,18.40
2017-10-15T16:54:55.349Z,18.40
2017-10-15T16:57:29.578Z,18.30
2017-10-15T17:00:03.221Z,18.20
2017-10-15T17:02:37.050Z,18.00
2017-10-15T17:05:11.614Z,17.70
2017-10-15T17:07:46.169Z,17.70
2017-10-15T17:10:20.006Z,17.70
2017-10-15T17:12:53.850Z,17.70
2017-10-15T17:15:27.989Z,17.60
2017-10-15T17:18:02.684Z,17.40
2017-10-15T17:23:19.784Z,17.40
2017-10-15T17:25:53.833Z,17.30
2017-10-15T17:28:29.044Z,17.20
2017-10-15T17:31:03.950Z,17.00
2017-10-15T17:33:38.411Z,16.90
2017-10-15T17:36:12.018Z,16.90
2017-10-15T17:38:45.870Z,16.80
2017-10-15T17:41:19.728Z,16.70
2017-10-15T17:43:58.300Z,16.50
2017-10-15T17:46:32.108Z,16.40
2017-10-15T17:49:05.774Z,16.30
2017-10-15T17:51:39.496Z,16.20
2017-10-15T17:54:13.386Z,16.10
2017-10-15T17:56:48.052Z,16.00
2017-10-15T17:59:23.061Z,16.00
2017-10-15T18:02:10.468Z,15.90
2017-10-15T18:04:44.606Z,15.90
2017-10-15T18:07:18.288Z,15.90
2017-10-15T18:09:53.643Z,15.80
2017-10-15T18:12:27.853Z,15.80
2017-10-15T18:15:01.763Z,15.70
2017-10-15T18:17:36.292Z,15.70
2017-10-15T18:20:10.188Z,15.60
2017-10-15T18:22:44.597Z,15.50
2017-10-15T18:28:04.490Z,15.50
2017-10-15T18:30:43.940Z,15.40
2017-10-15T18:33:18.254Z,15.40
2017-10-15T18:36:09.839Z,15.40
2017-10-15T18:38:47.854Z,15.30
2017-10-15T18:41:26.636Z,15.30
2017-10-15T18:44:00.449Z,15.30
2017-10-15T18:46:34.608Z,15.30
2017-10-15T18:49:09.841Z,15.40
2017-10-15T18:51:44.967Z,15.40
2017-10-15T18:54:19.332Z,15.30
2017-10-15T18:56:55.644Z,15.30
2017-10-15T18:59:30.412Z,15.20
2017-10-15T19:02:05.388Z,15.20
2017-10-15T19:04:39.909Z,15.10
2017-10-15T19:07:14.458Z,15.00
2017-10-15T19:09:52.850Z,15.00
2017-10-15T19:12:28.147Z,15.00
2017-10-15T19:15:03.434Z,14.90
2017-10-15T19:17:37.200Z,14.90
2017-10-15T19:20:15.788Z,15.00
2017-10-15T19:22:51.748Z,15.10
2017-10-15T19:25:31.349Z,15.00
2017-10-15T19:30:46.972Z,15.00
2017-10-15T19:33:21.624Z,15.00
2017-10-15T19:35:57.174Z,14.90
2017-10-15T19:38:35.196Z,14.90
2017-10-15T19:41:08.997Z,14.90
2017-10-15T19:43:44.572Z,14.90
2017-10-15T19:46:22.412Z,14.90
2017-10-15T19:48:57.175Z,14.90
2017-10-15T19:51:32.165Z,14.90
2017-10-15T19:54:09.513Z,14.80
2017-10-15T19:56:45.930Z,14.70
2017-10-15T19:59:20.409Z,14.70
2017-10-15T20:01:56.275Z,14.70
2017-10-15T20:04:32.605Z,14.60
2017-10-15T20:07:08.212Z,14.60
2017-10-15T20:09:44.861Z,14.60
2017-10-15T20:12:19.779Z,14.50
2017-10-15T20:14:54.174Z,14.50
2017-10-15T20:17:32.595Z,14.60
2017-10-15T20:20:09.103Z,14.60
2017-10-15T20:22:42.761Z,14.50
2017-10-15T20:25:19.400Z,14.50
2017-10-15T20:27:54.096Z,14.60
2017-10-15T20:30:28.549Z,14.70
2017-10-15T20:33:05.259Z,14.70
2017-10-15T20:35:39.992Z,14.70
2017-10-15T20:38:15.033Z,14.80
2017-10-15T20:40:49.553Z,14.80
2017-10-15T20:43:24.440Z,14.90
2017-10-15T20:45:58.881Z,14.90
2017-10-15T20:48:34.208Z,14.80
2017-10-15T20:51:08.543Z,14.80
2017-10-15T20:59:20.028Z,14.80
2017-10-15T21:01:54.058Z,14.90
2017-10-15T21:04:28.609Z,14.90
2017-10-15T21:09:41.794Z,14.80
2017-10-15T21:12:15.688Z,14.70
2017-10-15T21:14:51.263Z,14.70
2017-10-15T21:17:26.115Z,14.70
2017-10-15T21:19:59.944Z,14.70
2017-10-15T21:22:33.808Z,14.70
2017-10-15T21:25:07.596Z,14.70
2017-10-15T21:27:41.727Z,14.70
2017-10-15T21:30:15.751Z,14.70
2017-10-15T21:32:50.484Z,14.60
2017-10-15T21:35:25.623Z,14.60
2017-10-15T21:37:59.925Z,14.70
2017-10-15T21:40:34.261Z,14.80
2017-10-15T21:43:08.475Z,14.80
2017-10-15T21:45:42.478Z,14.70
2017-10-15T21:48:17.980Z,14.60
2017-10-15T21:50:52.842Z,14.50
2017-10-15T21:53:26.840Z,14.50
2017-10-15T21:56:01.446Z,14.40
2017-10-15T21:58:35.219Z,14.40
2017-10-15T22:01:09.055Z,14.40
2017-10-15T22:03:44.136Z,14.30
2017-10-15T22:06:18.690Z,14.20
2017-10-15T22:08:55.151Z,14.10
2017-10-15T22:11:29.560Z,14.10
2017-10-15T22:14:04.284Z,14.00
2017-10-15T22:16:38.732Z,14.00
2017-10-15T22:19:12.387Z,13.90
2017-10-15T22:21:51.868Z,13.90
2017-10-15T22:24:26.142Z,13.90
2017-10-15T22:26:59.747Z,13.90
2017-10-15T22:29:33.974Z,14.00
2017-10-15T22:32:07.761Z,14.00
2017-10-15T22:34:42.344Z,14.20
2017-10-15T22:37:16.166Z,14.20
2017-10-15T22:39:51.565Z,14.30
2017-10-15T22:42:26.093Z,14.40
2017-10-15T22:44:59.934Z,14.40
2017-10-15T22:47:33.675Z,14.50
2017-10-15T22:50:07.694Z,14.50
2017-10-15T22:52:41.502Z,14.50
2017-10-15T22:55:15.246Z,14.50
2017-10-15T22:57:49.884Z,14.50
2017-10-15T23:00:23.938Z,14.30
2017-10-15T23:02:57.934Z,14.20
2017-10-15T23:05:31.777Z,14.30
2017-10-15T23:08:05.591Z,14.30
2017-10-15T23:10:39.408Z,14.40
2017-10-15T23:13:13.282Z,14.40
2017-10-15T23:15:47.890Z,14.40
2017-10-15T23:18:21.683Z,14.50
2017-10-15T23:20:56.501Z,14.50
2017-10-15T23:23:31.012Z,14.60
2017-10-15T23:26:04.793Z,14.60
2017-10-15T23:28:39.242Z,14.60
2017-10-15T23:31:13.232Z,14.50
2017-10-15T23:33:47.778Z,14.50
2017-10-15T23:36:21.641Z,14.50
2017-10-15T23:38:56.450Z,14.50
2017-10-15T23:41:31.002Z,14.50
2017-10-15T23:44:05.421Z,14.50
2017-10-15T23:46:39.198Z,14.50
2017-10-15T23:49:13.340Z,14.40
2017-10-15T23:51:46.883Z,14.40
2017-10-15T23:54:20.786Z,14.40
2017-10-15T23:56:54.651Z,14.30
2017-10-15T23:59:28.521Z,14.20
